Flight Track Log - Related Links

Times and Time Zones

All times are in EDT time to prevent confusion due to time zone crossing. See the JBU1183 flight status page for this flight to view local times or setup timezone preferences in your user account.

Time Position Orientation Groundspeed Altitude Reporting Facility
EDT Latitude Longitude Course Direction KTS MPH feet Rate Location/Type
Mon 10:19:27 PM 40.6370 -73.7740 217° Southwest 145 167  Level FlightAware ADS-B
Mon 10:19:47 PM 40.6240 -73.7840 210° Southwest 165 190 300 1,733 Climbing FlightAware ADS-B
Mon 10:20:12 PM 40.6070 -73.7960 208° Southwest 171 197 1,300 2,000 Climbing FlightAware ADS-B
Mon 10:20:20 PM 40.6000 -73.7970 186° South 187 215 1,400 857 Climbing FlightAware ADS-B
Mon 10:20:40 PM 40.5850 -73.7910 163° South 215 247 1,700 1,000 Climbing FlightAware ADS-B
Mon 10:20:44 PM 40.5800 -73.7850 138° Southeast 224 258 1,800 1,500 Climbing FlightAware ADS-B
Mon 10:20:52 PM 40.5750 -73.7750 123° Southeast 236 272 2,000 1,125 Climbing FlightAware ADS-B
Mon 10:21:00 PM 40.5710 -73.7650 118° Southeast 248 285 2,100 1,286 Climbing FlightAware ADS-B
Mon 10:21:20 PM 40.5620 -73.7340 111° Southeast 278 320 2,600 2,500 Climbing FlightAware ADS-B
Mon 10:21:36 PM 40.5560 -73.7080 107° East 280 322 3,600 3,488 Climbing FlightAware ADS-B
Mon 10:22:03 PM 40.5460 -73.6660 107° East 280 322 5,100 3,143 Climbing FlightAware ADS-B
Mon 10:22:18 PM 40.5369 -73.6417 116° Southeast 289 333 5,800 2,609 Climbing FlightAware ADS-B
Mon 10:22:26 PM 40.5293 -73.6318 135° Southeast 289 333 6,100 2,769 Climbing FlightAware ADS-B
Mon 10:22:31 PM 40.5228 -73.6264 148° Southeast 286 329 6,400 3,818 Climbing FlightAware ADS-B
Mon 10:22:48 PM 40.5042 -73.6125 150° Southeast 279 321 7,500 3,750 Climbing FlightAware ADS-B
Mon 10:23:03 PM 40.4875 -73.5997 150° Southeast 275 316 8,400 3,097 Climbing FlightAware ADS-B
Mon 10:23:19 PM 40.4706 -73.5862 149° Southeast 281 323 9,100 2,516 Climbing FlightAware ADS-B
Mon 10:23:34 PM 40.4529 -73.5717 148° Southeast 290 334 9,700 1,957 Climbing FlightAware ADS-B
Mon 10:24:05 PM 40.4161 -73.5415 148° Southeast 319 367 10,600 1,279 Climbing FlightAware ADS-B
Mon 10:24:35 PM 40.3755 -73.5085 148° Southeast 357 411 11,000 1,429 Climbing FlightAware ADS-B
Mon 10:25:08 PM 40.3287 -73.4705 148° Southeast 371 427 12,100 2,276 Climbing FlightAware ADS-B
Mon 10:25:33 PM 40.2914 -73.4411 149° Southeast 375 432 13,200 2,533 Climbing FlightAware ADS-B
Mon 10:25:53 PM 40.2586 -73.4320 168° South 358 412 14,000 2,318 Climbing FlightAware ADS-B
Mon 10:26:17 PM 40.2223 -73.4464 197° South 350 403 14,900 1,909 Climbing FlightAware ADS-B
Mon 10:26:37 PM 40.1936 -73.4673 209° Southwest 361 415 15,400 1,588 Climbing FlightAware ADS-B
Mon 10:26:51 PM 40.1715 -73.4819 207° Southwest 365 420 15,800 1,875 Climbing FlightAware ADS-B
Mon 10:27:25 PM 40.1196 -73.5117 204° Southwest 374 430 16,900 1,971 Climbing FlightAware ADS-B
Mon 10:28:01 PM 40.0610 -73.5450 204° Southwest 377 434 18,100 2,000 Climbing FlightAware ADS-B
Mon 10:28:07 PM 40.0511 -73.5508 204° Southwest 378 435 18,300 2,053 Climbing FlightAware ADS-B
Mon 10:28:39 PM 39.9998 -73.5814 205° Southwest 383 441 19,400 1,810 Climbing FlightAware ADS-B
Mon 10:29:10 PM 39.9504 -73.6108 205° Southwest 390 449 20,200 1,600 Climbing FlightAware ADS-B
Mon 10:29:39 PM 39.9024 -73.6391 204° Southwest 396 456 21,000 1,548 Climbing FlightAware ADS-B
Mon 10:30:12 PM 39.8496 -73.6788 210° Southwest 401 461 21,800 1,524 Climbing FlightAware ADS-B
Mon 10:30:42 PM 39.8012 -73.7168 211° Southwest 405 466 22,600 1,600 Climbing FlightAware ADS-B
Mon 10:31:12 PM 39.7528 -73.7550 211° Southwest 408 470 23,400 1,500 Climbing FlightAware ADS-B
Mon 10:31:42 PM 39.7048 -73.7952 213° Southwest 412 474 24,100 1,377 Climbing FlightAware ADS-B
Mon 10:32:13 PM 39.6545 -73.8375 213° Southwest 416 479 24,800 1,548 Climbing FlightAware ADS-B
Mon 10:32:44 PM 39.6051 -73.8785 213° Southwest 414 476 25,700 1,548 Climbing FlightAware ADS-B
Mon 10:33:15 PM 39.5549 -73.9202 213° Southwest 415 478 26,400 1,279 Climbing FlightAware ADS-B
Mon 10:33:45 PM 39.5057 -73.9608 212° Southwest 419 482 27,000 1,180 Climbing FlightAware ADS-B
Mon 10:34:16 PM 39.4563 -74.0013 212° Southwest 421 484 27,600 1,182 Climbing FlightAware ADS-B
Mon 10:34:51 PM 39.3983 -74.0490 212° Southwest 423 487 28,300 1,200 Climbing FlightAware ADS-B
Mon 10:35:21 PM 39.3490 -74.0894 212° Southwest 424 488 28,900 900 Climbing FlightAware ADS-B
Mon 10:35:51 PM 39.2980 -74.1312 212° Southwest 430 495 29,200 700 Climbing FlightAware ADS-B
Mon 10:36:21 PM 39.2472 -74.1729 212° Southwest 435 501 29,600 1,000 Climbing FlightAware ADS-B
Mon 10:36:51 PM 39.1966 -74.2143 212° Southwest 434 499 30,200 1,100 Climbing FlightAware ADS-B
Mon 10:37:21 PM 39.1450 -74.2562 212° Southwest 435 501 30,700 1,082 Climbing FlightAware ADS-B
Mon 10:37:52 PM 39.0939 -74.2978 212° Southwest 434 499 31,300 1,279 Climbing FlightAware ADS-B
Mon 10:38:22 PM 39.0420 -74.3399 212° Southwest 431 496 32,000 1,313 Climbing FlightAware ADS-B
Mon 10:38:56 PM 38.9853 -74.3859 212° Southwest 426 490 32,700 1,125 Climbing FlightAware ADS-B
Mon 10:39:26 PM 38.9349 -74.4268 212° Southwest 427 491 33,200 871 Climbing FlightAware ADS-B
Mon 10:39:58 PM 38.8820 -74.4695 212° Southwest 426 490 33,600 1,143 Climbing FlightAware ADS-B
Mon 10:40:29 PM 38.8302 -74.5110 212° Southwest 418 481 34,400 1,672 Climbing FlightAware ADS-B
Mon 10:40:59 PM 38.7819 -74.5500 212° Southwest 406 467 35,300 1,377 Climbing FlightAware ADS-B
Mon 10:41:30 PM 38.7341 -74.5886 212° Southwest 402 463 35,800 537 Climbing FlightAware ADS-B
Mon 10:42:06 PM 38.6765 -74.6347 212° Southwest 409 471 35,900 176 Climbing FlightAware ADS-B
Mon 10:42:38 PM 38.6252 -74.6757 212° Southwest 408 470 36,000 97 Climbing FlightAware ADS-B
Mon 10:43:08 PM 38.5769 -74.7143 212° Southwest 411 473 36,000  Level FlightAware ADS-B
Mon 10:43:38 PM 38.5276 -74.7537 212° Southwest 413 475 36,000  Level FlightAware ADS-B
Mon 10:44:22 PM 38.4575 -74.8094 212° Southwest 412 474 36,000  Level FlightAware ADS-B
Mon 10:44:52 PM 38.4086 -74.8483 212° Southwest 413 475 36,000  Level FlightAware ADS-B
Mon 10:45:23 PM 38.3585 -74.8881 212° Southwest 413 475 36,000  Level FlightAware ADS-B
Mon 10:45:53 PM 38.3094 -74.9270 212° Southwest 414 476 36,000  Level FlightAware ADS-B
Mon 10:46:24 PM 38.2610 -74.9650 212° Southwest 413 475 36,000  Level FlightAware ADS-B
Mon 10:46:37 PM 38.2394 -74.9823 212° Southwest 414 476 36,000  Level FlightAware ADS-B
Mon 10:47:08 PM 38.1878 -75.0230 212° Southwest 416 479 36,000  Level FlightAware ADS-B
Mon 10:47:38 PM 38.1382 -75.0622 212° Southwest 418 481 36,000  Level FlightAware ADS-B
Mon 10:48:09 PM 38.0876 -75.1020 212° Southwest 420 483 36,000  Level FlightAware ADS-B
Mon 10:48:40 PM 38.0369 -75.1416 212° Southwest 419 482 36,000  Level FlightAware ADS-B
Mon 10:49:11 PM 37.9856 -75.1818 212° Southwest 419 482 36,000  Level FlightAware ADS-B
Mon 10:49:41 PM 37.9358 -75.2211 212° Southwest 419 482 36,000  Level FlightAware ADS-B
Mon 10:50:17 PM 37.8770 -75.2670 212° Southwest 419 482 36,000  Level FlightAware ADS-B
Mon 10:50:47 PM 37.8262 -75.3065 212° Southwest 420 483 36,000  Level FlightAware ADS-B
Mon 10:51:24 PM 37.7661 -75.3533 212° Southwest 422 486 36,000  Level FlightAware ADS-B
Mon 10:51:54 PM 37.7158 -75.3923 212° Southwest 422 486 36,000  Level FlightAware ADS-B
Mon 10:52:24 PM 37.6655 -75.4314 212° Southwest 421 484 36,000  Level FlightAware ADS-B
Mon 10:52:55 PM 37.6145 -75.4709 212° Southwest 422 486 36,000  Level FlightAware ADS-B
Mon 10:53:26 PM 37.5631 -75.5106 211° Southwest 422 486 36,000  Level FlightAware ADS-B
Mon 10:53:56 PM 37.5130 -75.5493 211° Southwest 423 487 36,000  Level FlightAware ADS-B
Mon 10:54:36 PM 37.4500 -75.5980 212° Southwest 418 481 36,000  Level FlightAware ADS-B
Mon 10:55:11 PM 37.3930 -75.6420 212° Southwest 420 483 36,000  Level FlightAware ADS-B
Mon 10:55:25 PM 37.3645 -75.6638 211° Southwest 425 489 36,000  Level FlightAware ADS-B
Mon 10:55:55 PM 37.3130 -75.7033 211° Southwest 428 493 36,000  Level FlightAware ADS-B
Mon 10:56:26 PM 37.2613 -75.7428 211° Southwest 429 494 36,000  Level FlightAware ADS-B
Mon 10:56:56 PM 37.2099 -75.7821 211° Southwest 431 496 36,000  Level FlightAware ADS-B
Mon 10:57:27 PM 37.1566 -75.8229 211° Southwest 431 496 36,000  Level FlightAware ADS-B
Mon 10:57:57 PM 37.1058 -75.8617 211° Southwest 430 495 36,000  Level FlightAware ADS-B
Mon 10:58:28 PM 37.0533 -75.9016 211° Southwest 429 494 36,000  Level FlightAware ADS-B
Mon 10:58:59 PM 37.0002 -75.9418 211° Southwest 427 491 36,000  Level FlightAware ADS-B
Mon 10:59:30 PM 36.9487 -75.9807 211° Southwest 427 491 36,000  Level FlightAware ADS-B
Mon 11:00:01 PM 36.8961 -76.0205 211° Southwest 428 493 36,000 -98 Level FlightAware ADS-B
Mon 11:00:31 PM 36.8452 -76.0590 211° Southwest 429 494 35,900  Descending FlightAware ADS-B
Mon 11:01:05 PM 36.7880 -76.1022 211° Southwest 430 495 36,000 92 Climbing FlightAware ADS-B
Mon 11:01:36 PM 36.7354 -76.1419 211° Southwest 430 495 36,000  Level FlightAware ADS-B
Mon 11:02:10 PM 36.6776 -76.1853 211° Southwest 430 495 36,000  Level FlightAware ADS-B
Mon 11:02:48 PM 36.6260 -76.2240 211° Southwest 431 496 36,000  Level FlightAware ADS-B
Mon 11:03:23 PM 36.5550 -76.2770 211° Southwest 433 498 36,000  Level FlightAware ADS-B
Mon 11:04:03 PM 36.4860 -76.3290 211° Southwest 431 496 36,000  Level FlightAware ADS-B
Mon 11:04:33 PM 36.4370 -76.3650 211° Southwest 433 498 36,000  Level FlightAware ADS-B
Mon 11:05:26 PM 36.3390 -76.4380 211° Southwest 442 509 36,000  Level FlightAware ADS-B
Mon 11:06:06 PM 36.2700 -76.4900 211° Southwest 442 509 36,000  Level FlightAware ADS-B
Mon 11:06:56 PM 36.1810 -76.5560 211° Southwest 443 510 36,000  Level FlightAware ADS-B
Mon 11:07:40 PM 36.1120 -76.6070 211° Southwest 444 511 36,000  Level FlightAware ADS-B
Mon 11:08:16 PM 36.0580 -76.6470 211° Southwest 444 511 36,000  Level FlightAware ADS-B
Mon 11:08:52 PM 36.0040 -76.6870 211° Southwest 444 511 36,000  Level FlightAware ADS-B
Mon 11:09:28 PM 35.9500 -76.7270 211° Southwest 444 511 36,000  Level FlightAware ADS-B
Mon 11:10:04 PM 35.8970 -76.7670 211° Southwest 444 511 36,000  Level FlightAware ADS-B
Mon 11:10:40 PM 35.8430 -76.8070 211° Southwest 444 511 36,000  Level FlightAware ADS-B
Mon 11:11:16 PM 35.7890 -76.8470 211° Southwest 444 511 36,000  Level FlightAware ADS-B
Mon 11:11:52 PM 35.7350 -76.8870 211° Southwest 444 511 36,000  Level FlightAware ADS-B
Mon 11:12:28 PM 35.6810 -76.9270 211° Southwest 444 511 36,000  Level FlightAware ADS-B
Mon 11:13:04 PM 35.6270 -76.9670 211° Southwest 444 511 36,000  Level FlightAware ADS-B
Mon 11:13:41 PM 35.5720 -77.0080 211° Southwest 444 511 36,000  Level FlightAware ADS-B
Mon 11:14:18 PM 35.5160 -77.0480 210° Southwest 444 511 36,000  Level FlightAware ADS-B
Mon 11:14:54 PM 35.4620 -77.0880 211° Southwest 444 511 36,000  Level FlightAware ADS-B
Mon 11:15:30 PM 35.4090 -77.1280 212° Southwest 444 511 36,000  Level FlightAware ADS-B
Mon 11:16:06 PM 35.3550 -77.1680 211° Southwest 444 511 36,000  Level FlightAware ADS-B
Mon 11:16:42 PM 35.3010 -77.2070 211° Southwest 444 511 36,000  Level FlightAware ADS-B
Mon 11:17:13 PM 35.0883 -77.2825 211° Southwest 439 505 36,000  Level Washington Center
Mon 11:18:12 PM 34.9708 -77.3258 197° South 444 511 36,000  Level Washington Center
Mon 11:19:13 PM 34.8533 -77.3714 198° South 444 511 36,000 -49 Level Washington Center
Mon 11:20:14 PM 34.7294 -77.4242 199° South 439 505 35,900  Descending Washington Center
Mon 11:26:13 PM 34.0340 -77.6860 199° South 441 507 36,000 15 Climbing FlightAware ADS-B
Mon 11:26:53 PM 33.9560 -77.7160 198° South 446 513 36,000  Level FlightAware ADS-B
Mon 11:27:43 PM 33.8540 -77.7540 197° South 460 529 36,000  Level FlightAware ADS-B
Mon 11:28:18 PM 33.7790 -77.7820 197° South 462 532 36,000  Level FlightAware ADS-B
Mon 11:28:53 PM 33.7070 -77.8090 197° South 458 527 36,000  Level FlightAware ADS-B
Mon 11:29:38 PM 33.6310 -77.8370 197° South 455 524 36,000 -71 Level FlightAware ADS-B
Mon 11:30:18 PM 33.6310 -77.8370 197° South 452 520 35,900 -60 Descending FlightAware ADS-B
Mon 11:31:18 PM 33.6320 -77.8370 360° North 449 517 35,900  Level FlightAware ADS-B
Mon 11:31:54 PM 33.5710 -77.8590 197° South 449 517 35,900 86 Level FlightAware ADS-B
Mon 11:32:28 PM 33.2840 -77.9670 197° South 451 519 36,000 83 Climbing FlightAware ADS-B
Mon 11:33:06 PM 33.2190 -77.9910 197° South 451 519 36,000  Level FlightAware ADS-B
Mon 11:33:38 PM 33.1440 -78.0190 197° South 455 524 36,000  Level FlightAware ADS-B
Mon 11:34:18 PM 33.0580 -78.0510 197° South 457 526 36,000  Level FlightAware ADS-B
Mon 11:34:55 PM 32.9940 -78.0740 197° South 457 526 36,000  Level FlightAware ADS-B
Mon 11:35:28 PM 32.9160 -78.1030 197° South 459 528 36,000  Level FlightAware ADS-B
Mon 11:36:08 PM 32.8340 -78.1330 197° South 458 527 36,000  Level FlightAware ADS-B
Mon 11:36:43 PM 32.7640 -78.1590 197° South 457 526 36,000  Level FlightAware ADS-B
Mon 11:37:18 PM 32.6930 -78.1850 197° South 458 527 36,000  Level FlightAware ADS-B
Mon 11:37:53 PM 32.6240 -78.2100 197° South 456 525 36,000  Level FlightAware ADS-B
Mon 11:38:23 PM 32.5670 -78.2310 197° South 456 525 36,000  Level FlightAware ADS-B
Mon 11:39:03 PM 32.4810 -78.2620 197° South 457 526 36,000  Level FlightAware ADS-B
Mon 11:39:38 PM 32.4100 -78.2880 197° South 460 529 36,000  Level FlightAware ADS-B
Mon 11:40:13 PM 32.3400 -78.3130 197° South 460 529 36,000  Level FlightAware ADS-B
Mon 11:40:48 PM 32.2680 -78.3400 198° South 460 529 36,000  Level FlightAware ADS-B
Mon 11:41:23 PM 32.1960 -78.3660 197° South 460 529 36,000  Level FlightAware ADS-B
Mon 11:41:58 PM 32.1240 -78.3920 197° South 461 531 36,000  Level FlightAware ADS-B
Mon 11:42:34 PM 32.0600 -78.4150 197° South 461 531 36,000  Level FlightAware ADS-B
Mon 11:43:08 PM 31.9880 -78.4410 197° South 463 533 36,000  Level FlightAware ADS-B
Mon 11:43:46 PM 31.9150 -78.4670 197° South 463 533 36,000  Level FlightAware ADS-B
Mon 11:44:22 PM 31.8520 -78.4900 197° South 463 533 36,000  Level FlightAware ADS-B
Mon 11:44:58 PM 31.7900 -78.5120 197° South 463 533 36,000  Level FlightAware ADS-B
Mon 11:45:34 PM 31.7270 -78.5350 197° South 463 533 36,000  Level FlightAware ADS-B
Mon 11:46:10 PM 31.6640 -78.5570 197° South 463 533 36,000  Level FlightAware ADS-B
Mon 11:46:46 PM 31.6020 -78.5800 198° South 463 533 36,000  Level FlightAware ADS-B
Mon 11:47:22 PM 31.5390 -78.6020 197° South 463 533 36,000  Level FlightAware ADS-B
Mon 11:47:59 PM 31.4750 -78.6250 197° South 463 533 36,000  Level FlightAware ADS-B
Mon 11:48:35 PM 31.4120 -78.6480 197° South 463 533 36,000  Level FlightAware ADS-B
Mon 11:49:11 PM 31.3490 -78.6700 197° South 463 533 36,000  Level FlightAware ADS-B
Mon 11:49:47 PM 31.2870 -78.6930 198° South 463 533 36,000  Level FlightAware ADS-B
Mon 11:50:23 PM 31.2240 -78.7150 197° South 463 533 36,000  Level FlightAware ADS-B
Mon 11:50:59 PM 31.1610 -78.7370 197° South 463 533 36,000  Level FlightAware ADS-B
Mon 11:51:35 PM 31.0990 -78.7600 198° South 463 533 36,000  Level FlightAware ADS-B
Mon 11:52:11 PM 31.0360 -78.7820 197° South 463 533 36,000  Level FlightAware ADS-B
Mon 11:52:47 PM 30.9730 -78.8050 197° South 463 533 36,000 -64 Level FlightAware ADS-B
Mon 11:53:45 PM 30.6761 -78.9075 197° South 471 542 35,900 -43 Descending Jacksonville Center
Mon 11:55:06 PM 30.5003 -78.9714 197° South 478 550 35,900  Level Miami Center
Mon 11:56:08 PM 30.3683 -79.0167 196° South 478 550 35,900  Level Miami Center
Mon 11:57:08 PM 30.2506 -79.0767 204° Southwest 478 550 35,900  Level Miami Center
Mon 11:58:08 PM 30.1492 -79.1633 216° Southwest 462 532 35,900 51 Level Miami Center
Mon 11:59:06 PM 30.0353 -79.2497 213° Southwest 479 551 36,000 51 Climbing Miami Center
Tue 12:00:06 AM 29.9547 -79.3244 219° Southwest 479 551 36,000 -248 Level Miami Center
Tue 12:01:07 AM 29.8236 -79.4169 211° Southwest 473 544 35,500 -700 Descending Miami Center
Tue 12:02:06 AM 29.7156 -79.5125 218° Southwest 478 550 34,600 -1,311 Descending Miami Center
Tue 12:03:06 AM 29.6056 -79.5981 214° Southwest 483 556 32,900 -1,850 Descending Miami Center
Tue 12:04:06 AM 29.4975 -79.6836 215° Southwest 483 556 30,900 -2,182 Descending Miami Center
Tue 12:05:07 AM 29.3894 -79.7689 215° Southwest 483 556 28,500 -2,300 Descending Miami Center
Tue 12:06:06 AM 29.2856 -79.8517 215° Southwest 478 550 26,300 -2,218 Descending Miami Center
Tue 12:07:06 AM 29.1797 -79.9297 213° Southwest 473 544 24,100 -2,269 Descending Miami Center
Tue 12:08:05 AM 29.0800 -80.0075 214° Southwest 458 527 21,800 -2,331 Descending Miami Center
Tue 12:09:07 AM 28.9803 -80.0806 213° Southwest 447 514 19,400 -1,526 Descending Miami Center
Tue 12:15:53 AM 28.7300 -80.8140 249° West 315 362 9,900 -1,381 Descending FlightAware ADS-B
Tue 12:16:17 AM 28.7200 -80.8440 249° West 299 344 9,500 -1,833 Descending FlightAware ADS-B
Tue 12:16:29 AM 28.7120 -80.8690 250° West 297 342 8,800 -2,323 Descending FlightAware ADS-B
Tue 12:16:48 AM 28.7040 -80.8920 248° West 295 339 8,300 -652 Descending FlightAware ADS-B
Tue 12:17:15 AM 28.6930 -80.9250 249° West 295 339 8,300 -982 Level FlightAware ADS-B
Tue 12:17:43 AM 28.6790 -80.9620 247° West 288 331 7,400 -1,815 Descending FlightAware ADS-B
Tue 12:19:14 AM 28.6340 -81.0930 249° West 286 329 4,700 -1,405 Descending FlightAware ADS-B
Tue 12:19:34 AM 28.6240 -81.1220 249° West 247 284 4,800 130 Climbing FlightAware ADS-B
Tue 12:20:00 AM 28.6150 -81.1480 248° West 247 284 4,800 -554 Level FlightAware ADS-B
Tue 12:20:39 AM 28.5990 -81.1950 249° West 238 274 4,200 -1,034 Descending FlightAware ADS-B
Tue 12:22:25 AM 28.6080 -81.1680 69° East 236 272 2,300 -1,017 Descending FlightAware ADS-B
Tue 12:22:37 AM 28.5620 -81.3080 250° West 151 174 2,200 -158 Descending FlightAware ADS-B
Tue 12:23:03 AM 28.5540 -81.3230 239° Southwest 151 174 2,200  Level FlightAware ADS-B
Tue 12:23:39 AM 28.5380 -81.3400 223° Southwest 151 174 2,200  Level FlightAware ADS-B
Tue 12:26:21 AM 28.5620 -81.3080 246° West 151 174 2,200  Level FlightAware ADS-B
Tue 12:26:31 AM 28.5580 -81.3140 233° Southwest 147 169 2,200  Level FlightAware ADS-B
Tue 12:26:54 AM 28.5530 -81.3190 221° Southwest 148 170 2,200  Level FlightAware ADS-B
Tue 12:27:21 AM 28.5460 -81.3240 212° Southwest 150 173 2,200 -324 Level FlightAware ADS-B
Tue 12:27:31 AM 28.5390 -81.3250 187° South 153 176 2,000 -769 Descending FlightAware ADS-B
Tue 12:28:00 AM 28.5310 -81.3240 174° South 154 177 1,700 -476 Descending FlightAware ADS-B
Tue 12:28:34 AM 28.5100 -81.3220 175° South 152 175 1,500 -486 Descending FlightAware ADS-B
Tue 12:29:14 AM 28.4930 -81.3220 180° South 151 174 1,100 -583 Descending FlightAware ADS-B
Tue 12:29:46 AM 28.4810 -81.3230 184° South 133 153 800 -563 Descending FlightAware ADS-B

Login

Don't have an account? Register now (free) for customized features, flight alerts, and more!